Weather observations for the past three days for
Atlantic
Imperial (Metric)
Date Time (cdt) Wind (mph) Vis. (mi.) Weather Sky Cond. Temperature (ºF) Relative Humidity Wind Chill (°F) Heat Index (°F) Pressure Precipitation (in)
Air Dwpt 6 hour altimeter (in) sea level (mb) 1 hr 3 hr 6 hr
Max. Min.
06 07:55 Calm 10.00 Fair CLR 41 28.4 61% 30.06 0.0
06 07:35 Calm 10.00 Fair CLR 37.4 28.4 70% 30.05 0.0
06 07:15 Calm 10.00 Fair CLR 35.6 28.4 75% 30.04 0.0
06 06:55 Calm 10.00 Fair CLR 35.6 26.6 70% 30.03 0.0
06 06:35 Calm 10.00 Fair CLR 35.6 24.8 65% 30.03 0.0
06 06:15 Calm 10.00 Fair CLR 35.6 26.6 70% 30.02 0.0
06 05:35 N 6 10.00 Fair CLR 37.4 26.6 65% 33 30.01 0.0
06 05:15 N 7 10.00 Fair CLR 39.2 24.8 56% 35 30.01 0.0
06 04:55 N 7 10.00 Fair CLR 39.2 26.6 61% 35 30 0.0
06 04:35 N 6 10.00 Fair CLR 39.2 26.6 61% 36 30 0.0
06 04:15 N 5 10.00 Fair CLR 41 26.6 57% 38 30 0.0
06 03:55 N 6 10.00 Fair CLR 41 24.8 53% 38 29.99 0.0
06 03:35 N 5 10.00 Fair CLR 41 24.8 53% 38 29.99 0.0
06 03:15 Calm 10.00 Fair CLR 41 24.8 53% 29.99 0.0
06 02:55 N 3 10.00 Fair CLR 39.2 26.6 61% 29.98 0.0
06 02:35 N 5 10.00 Fair CLR 41 26.6 57% 38 29.98 0.0
06 02:15 NW 5 10.00 Fair CLR 39.2 28.4 65% 36 29.98 0.0
06 01:55 N 6 10.00 Fair CLR 41 24.8 53% 38 29.98 0.0
06 01:35 NW 6 10.00 Fair CLR 41 23 49% 38 29.98 0.0
06 01:15 N 6 10.00 Fair CLR 42.8 23 46% 40 29.98 0.0
06 00:55 N 5 10.00 Fair CLR 42.8 23 46% 41 29.98 0.0
06 00:35 N 6 10.00 Fair CLR 42.8 24.8 49% 40 29.97 0.0
06 00:15 N 7 10.00 Fair CLR 42.8 24.8 49% 39 29.96 0.0
05 23:55 N 6 10.00 Fair CLR 44.6 24.8 46% 42 29.95 0.0
05 23:35 N 8 10.00 A Few Clouds FEW045 46.4 23 40% 43 29.95 0.0
05 23:15 NW 10 10.00 A Few Clouds FEW044 46.4 23 40% 42 29.95 0.0
05 22:55 NW 8 10.00 Fair CLR 46.4 23 40% 43 29.94 0.0
05 22:35 NW 7 10.00 A Few Clouds FEW040 FEW050 46.4 23 40% 43 29.94 0.0
05 22:15 N 7 10.00 A Few Clouds FEW043 FEW050 46.4 23 40% 43 29.93 0.0
05 21:55 N 6 10.00 A Few Clouds FEW048 46.4 24.8 43% 44 29.92 0.0
05 21:35 N 8 10.00 A Few Clouds FEW049 48.2 23 37% 45 29.92 0.0
05 21:15 N 10 10.00 Fair CLR 50 23 35% 46 29.91 0.0
05 20:55 N 9 10.00 Fair CLR 50 23 35% 47 29.9 0.0
05 20:35 N 10 10.00 Fair CLR 51.8 23 32% 29.9 0.0
05 20:15 N 9 G 16 10.00 Fair CLR 51.8 23 32% 29.9 0.0
05 19:55 NW 12 10.00 Fair CLR 51.8 23 32% 29.89 0.0
05 19:35 NW 15 10.00 Fair CLR 51.8 23 32% 29.89 0.0
05 19:15 N 15 G 22 10.00 Fair CLR 53.6 23 30% 29.88 0.0
05 18:55 N 16 10.00 Fair CLR 53.6 24.8 33% 29.88 0.0
05 18:35 NW 18 10.00 Fair CLR 53.6 24.8 33% 29.88 0.0
05 18:15 NW 16 G 24 10.00 Fair CLR 53.6 24.8 33% 29.88 0.0
05 17:55 N 17 10.00 Fair CLR 55.4 24.8 31% 29.87 0.0
05 17:35 N 14 G 22 10.00 Fair CLR 55.4 24.8 31% 29.87 0.0
05 17:15 NW 13 G 22 10.00 Fair CLR 55.4 26.6 33% 29.86 0.0
05 16:55 N 12 G 21 10.00 Fair CLR 55.4 26.6 33% 29.87 0.0
05 16:35 NW 14 G 23 10.00 Fair CLR 55.4 24.8 31% 29.87 0.0
05 16:15 NW 21 10.00 Fair and Breezy CLR 55.4 26.6 33% 29.87 0.0
05 15:55 NW 16 G 25 10.00 Fair CLR 55.4 24.8 31% 29.87 0.0
05 15:35 NW 21 10.00 Fair and Breezy CLR 57.2 24.8 29% 29.87 0.0
05 15:15 NW 10 G 24 10.00 Fair CLR 57.2 24.8 29% 29.87 0.0
05 14:55 NW 14 G 22 10.00 Fair CLR 57.2 24.8 29% 29.87 0.0
05 14:35 N 18 10.00 Fair CLR 57.2 26.6 31% 29.88 0.0
05 14:15 NW 14 G 21 10.00 Fair CLR 57.2 26.6 31% 29.88 0.0
05 13:55 N 12 G 23 10.00 Fair CLR 57.2 26.6 31% 29.88 0.0
05 13:35 NW 16 G 22 10.00 A Few Clouds FEW070 57.2 28.4 33% 29.89 0.0
05 13:15 N 12 10.00 Partly Cloudy SCT065 55.4 30.2 38% 29.89 0.0
05 12:55 W 8 G 15 10.00 A Few Clouds FEW065 55.4 30.2 38% 29.9 0.0
05 12:35 Vrbl 7 10.00 A Few Clouds FEW060 53.6 32 44% 29.9 0.0
05 12:15 N 5 G 13 10.00 A Few Clouds FEW060 53.6 32 44% 29.91 0.0
05 11:55 N 8 10.00 A Few Clouds FEW055 53.6 33.8 47% 29.91 0.0
05 11:35 N 5 10.00 Fair CLR 51.8 33.8 50% 29.9 0.0
05 11:15 Vrbl 5 10.00 Fair CLR 51.8 33.8 50% 29.9 0.0
05 10:55 Vrbl 5 10.00 Fair CLR 51.8 35.6 54% 29.9 0.0
05 10:35 NW 6 10.00 Fair CLR 51.8 39.2 62% 29.89 0.0
05 10:15 NE 7 10.00 Fair CLR 50 39.2 67% 48 29.88 0.0
05 09:55 N 6 10.00 Fair CLR 50 37.4 62% 48 29.89 0.0
05 09:35 NW 7 10.00 Fair CLR 50 39.2 67% 48 29.88 0.0
05 09:15 N 6 10.00 Fair CLR 48.2 39.2 71% 46 29.88 0.0
05 08:55 N 6 10.00 Fair CLR 50 39.2 67% 48 29.88 0.0
05 08:15 N 5 10.00 Fair CLR 46.4 41 82% 45 29.86 0.0
05 07:55 N 5 10.00 Fair CLR 46.4 41 82% 45 29.85 0.0
05 07:35 Calm 10.00 Fair CLR 44.6 41 87% 29.83 0.0
05 07:15 Calm 10.00 Fair CLR 44.6 41 87% 29.83 0.0
05 06:55 Calm 10.00 Fair CLR 42.8 41 93% 29.83 0.0
05 06:35 Calm 10.00 Fair CLR 44.6 39.2 81% 29.83 0.0
05 06:15 Calm 10.00 Fair CLR 44.6 41 87% 29.84 0.0
05 05:55 Calm 10.00 Fair CLR 46.4 41 82% 29.84 0.0
05 05:35 Calm 10.00 Fair CLR 46.4 41 82% 29.84 0.0
05 04:55 Calm 10.00 Fair CLR 48.2 39.2 71% 29.83 0.0
05 04:35 Calm 10.00 Fair CLR 48.2 39.2 71% 29.82 0.0
05 04:15 Calm 10.00 A Few Clouds FEW120 46.4 41 82% 29.8 0.0
05 03:55 N 5 10.00 Partly Cloudy SCT120 46.4 41 82% 45 29.8 0.0
05 03:35 N 7 10.00 Partly Cloudy FEW085 SCT110 48.2 41 76% 46 29.78 0.0
05 03:15 Calm 10.00 Overcast FEW060 BKN090 OVC110 48.2 42.8 82% 29.78 0.0
05 02:55 N 5 10.00 Mostly Cloudy FEW060 SCT065 BKN080 48.2 42.8 82% 47 29.77 0.0
05 02:35 N 5 10.00 Mostly Cloudy FEW048 SCT060 BKN080 48.2 42.8 82% 47 29.77 0.0
05 02:15 N 6 10.00 Overcast BKN055 BKN065 OVC075 48.2 42.8 82% 46 29.78 0.0
05 01:55 NE 7 10.00 Light Rain FEW034 BKN055 OVC090 48.2 41 76% 46 29.76 0.0 0.02
05 01:35 N 8 7.00 Light Rain FEW025 SCT047 BKN055 46.4 42.8 87% 43 29.78 0.0
05 01:15 NE 6 7.00 Light Rain SCT035 BKN047 OVC075 48.2 42.8 82% 46 29.79 0.0
05 00:55 N 5 5.00 Light Rain FEW024 BKN036 OVC070 48.2 41 76% 47 29.8 0.0 0.02
05 00:35 NW 3 9.00 Light Rain FEW036 FEW050 OVC065 50 37.4 62% 29.81 0.0
05 00:15 N 8 G 15 9.00 Light Rain FEW036 SCT050 BKN065 51.8 35.6 54% 29.79 0.0
04 23:55 N 13 10.00 Light Unknown Precip SCT060 OVC075 53.6 33.8 47% 29.79 0.0
04 23:35 N 13 G 21 10.00 Overcast BKN075 OVC090 53.6 32 44% 29.76 0.0
04 23:15 N 16 G 22 10.00 Overcast FEW050 BKN075 OVC090 53.6 32 44% 29.77 0.0
04 22:55 N 13 10.00 Overcast FEW055 BKN095 OVC120 53.6 32 44% 29.75 0.0
04 22:35 N 14 G 22 10.00 Mostly Cloudy BKN110 53.6 30.2 41% 29.77 0.0
04 22:15 N 16 10.00 Overcast FEW055 SCT080 OVC110 55.4 30.2 38% 29.76 0.0
04 21:55 N 16 G 26 10.00 Mostly Cloudy FEW055 SCT075 BKN100 55.4 30.2 38% 29.74 0.0
04 21:35 N 17 G 23 10.00 Mostly Cloudy BKN110 55.4 30.2 38% 29.75 0.0
04 21:15 N 17 G 33 10.00 Partly Cloudy SCT100 55.4 30.2 38% 29.74 0.0
04 20:55 N 23 G 30 10.00 Overcast and Breezy FEW075 SCT095 OVC110 57.2 30.2 36% 29.71 0.0
04 20:35 N 20 G 29 10.00 Mostly Cloudy FEW030 BKN110 59 32 36% 29.73 0.0
04 20:15 N 24 10.00 A Few Clouds and Breezy FEW120 60.8 30.2 31% 29.7 0.0
04 19:55 N 22 G 38 10.00 Fair and Breezy CLR 62.6 30.2 30% 29.69 0.0
04 19:15 N 22 G 32 10.00 Fair and Breezy CLR 66.2 32 28% 29.65 0.0
04 18:55 N 21 G 29 10.00 Fair and Breezy CLR 69.8 33.8 27% 29.64 0.0
04 18:35 N 21 G 29 10.00 Fair and Breezy CLR 69.8 33.8 27% 29.63 0.0
04 18:15 N 21 G 28 10.00 Fair and Breezy CLR 71.6 35.6 27% 29.62 0.0
04 17:55 N 21 G 28 10.00 Fair and Breezy CLR 73.4 35.6 25% 29.61 0.0
04 17:35 N 24 10.00 Fair and Breezy CLR 73.4 35.6 25% 29.6 0.0
04 17:15 N 20 G 26 10.00 Fair CLR 75.2 37.4 25% 77 29.59 0.0
04 16:55 N 22 G 29 10.00 Fair and Breezy CLR 75.2 37.4 25% 77 29.58 0.0
04 16:35 N 18 G 26 10.00 Fair CLR 77 39.2 26% 77 29.57 0.0
04 16:15 NW 20 10.00 Fair CLR 77 41 28% 78 29.57 0.0
04 15:55 N 16 G 28 10.00 Fair CLR 77 42.8 30% 78 29.57 0.0
04 15:35 NW 15 G 26 10.00 Fair CLR 77 42.8 30% 78 29.56 0.0
04 15:15 NW 18 G 29 10.00 Fair CLR 78.8 42.8 28% 78 29.56 0.0
04 14:55 NW 22 G 29 10.00 A Few Clouds and Breezy FEW100 78.8 41 26% 78 29.56 0.0
04 14:35 NW 14 G 26 10.00 A Few Clouds FEW100 80.6 37.4 21% 79 29.55 0.0
04 14:15 W 14 G 28 10.00 Fair CLR 80.6 39.2 23% 79 29.55 0.0
04 13:55 W 16 G 24 10.00 Fair CLR 80.6 41 24% 79 29.55 0.0
04 13:35 W 17 10.00 Fair CLR 80.6 39.2 23% 79 29.56 0.0
04 13:15 W 20 G 25 10.00 Fair CLR 78.8 39.2 24% 78 29.56 0.0
04 12:55 NW 16 G 23 10.00 Fair CLR 78.8 39.2 24% 78 29.57 0.0
04 12:35 W 18 G 25 10.00 Fair CLR 78.8 41 26% 78 29.57 0.0
04 12:15 W 21 G 26 10.00 Fair and Breezy CLR 77 41 28% 78 29.57 0.0
04 11:35 W 14 10.00 Fair CLR 77 44.6 32% 78 29.57 0.0
04 11:15 W 10 10.00 Fair CLR 75.2 44.6 34% 77 29.57 0.0
04 10:55 W 13 10.00 Fair CLR 73.4 44.6 36% 29.57 0.0
04 10:35 W 12 G 20 10.00 Fair CLR 71.6 46.4 41% 29.57 0.0
04 10:15 W 14 10.00 Fair CLR 71.6 46.4 41% 29.57 0.0
04 09:55 SW 8 10.00 Fair CLR 68 46.4 46% 29.58 0.0
04 09:35 SW 7 10.00 Fair CLR 64.4 46.4 52% 29.58 0.0
04 09:15 S 7 10.00 Fair CLR 62.6 44.6 52% 29.58 0.0
04 08:55 S 6 10.00 Fair CLR 60.8 44.6 55% 29.59 0.0
04 08:35 SW 3 10.00 Fair CLR 57.2 44.6 63% 29.59 0.0
04 08:15 Calm 10.00 Fair CLR 51.8 42.8 72% 29.59 0.0
04 07:55 Calm 10.00 Fair CLR 50 42.8 76% 29.6 0.0
04 07:35 Calm 10.00 Partly Cloudy SCT110 46.4 42.8 87% 29.6 0.0
04 07:15 Calm 10.00 Mostly Cloudy BKN110 44.6 41 87% 29.6 0.0
04 06:55 Calm 10.00 Mostly Cloudy BKN110 42.8 41 93% 29.6 0.0
04 06:35 Calm 10.00 Mostly Cloudy BKN110 41 39.2 93% 29.6 0.0
04 06:15 N 5 10.00 A Few Clouds FEW120 41 37.4 87% 38 29.6 0.0
04 05:55 Calm 10.00 Fair CLR 41 39.2 93% 29.6 0.0
04 05:35 NE 3 10.00 Fair CLR 41 39.2 93% 29.61 0.0
04 05:15 Calm 10.00 Fair CLR 41 39.2 93% 29.61 0.0
04 04:55 Calm 10.00 Fair CLR 41 39.2 93% 29.62 0.0
04 04:35 Calm 10.00 Fair CLR 41 39.2 93% 29.62 0.0
04 04:15 Calm 10.00 Fair CLR 41 39.2 93% 29.63 0.0
03 16:55 NW 13 10.00 Fair CLR 73.4 35.6 25% 29.79 0.0
03 16:35 N 13 G 20 10.00 Fair CLR 73.4 35.6 25% 29.79 0.0
03 16:15 W 6 10.00 Fair CLR 73.4 33.8 23% 29.79 0.0
03 15:55 NW 15 10.00 Fair CLR 73.4 33.8 23% 29.8 0.0
03 15:35 NW 14 G 22 10.00 Fair CLR 71.6 32 23% 29.81 0.0
03 15:15 NW 10 G 20 10.00 Fair CLR 71.6 33.8 25% 29.81 0.0
03 14:55 N 16 G 24 10.00 Fair CLR 71.6 33.8 25% 29.82 0.0
03 14:35 NW 16 10.00 Fair CLR 71.6 35.6 27% 29.82 0.0
03 14:15 NW 13 G 20 10.00 Fair CLR 69.8 33.8 27% 29.82 0.0
03 13:55 NW 16 G 24 10.00 Fair CLR 69.8 33.8 27% 29.83 0.0
03 13:35 NW 15 G 25 10.00 Fair CLR 69.8 33.8 27% 29.83 0.0
03 13:15 N 13 G 21 10.00 Fair CLR 69.8 35.6 29% 29.83 0.0
03 12:55 NW 12 G 22 10.00 Fair CLR 69.8 35.6 29% 29.84 0.0
03 12:35 N 17 G 26 10.00 Fair CLR 69.8 35.6 29% 29.84 0.0
03 12:15 NW 15 10.00 Fair CLR 69.8 37.4 31% 29.85 0.0
03 11:55 NW 15 10.00 Fair CLR 68 37.4 33% 29.84 0.0
03 11:35 NW 13 10.00 Fair CLR 66.2 39.2 37% 29.85 0.0
03 11:15 NW 9 G 17 10.00 Fair CLR 66.2 41 40% 29.85 0.0
03 10:55 NW 10 G 16 10.00 Fair CLR 64.4 39.2 40% 29.85 0.0
03 10:35 W 10 10.00 Fair CLR 64.4 39.2 40% 29.84 0.0
03 10:15 W 9 10.00 Fair CLR 60.8 37.4 42% 29.84 0.0
03 09:55 W 13 10.00 Fair CLR 60.8 37.4 42% 29.85 0.0
03 09:35 W 14 G 21 10.00 Fair CLR 59 37.4 45% 29.84 0.0
03 09:15 SW 12 10.00 Fair CLR 59 37.4 45% 29.83 0.0
03 08:55 SW 12 10.00 Fair CLR 57.2 37.4 48% 29.84 0.0
03 08:35 SW 12 10.00 Fair CLR 55.4 37.4 51% 29.83 0.0
Date Time (cdt) Wind (mph) Vis. (mi.) Weather Sky Cond. Air Dwpt Max. Min. Relative Humidity Wind Chill (°F) Heat Index (°F) altimeter (in) sea level (mb) 1 hr 3 hr 6 hr
6 hour
Temperature (ºF) Pressure Precipitation (in)